Time;durP1;ratioP1;P1;durP2;ratioP2;P2;SDS_P1;SDS_P2;PMS_P1;PMS_P2;Temp;Humidity;BMP_temperature;BMP_pressure;BME280_temperature;BME280_humidity;BME280_pressure;Samples;Min_cycle;Max_cycle;Signal;HPM_P1;HPM_P2
2023/08/20 00:01:44;;;;;;;;;;;;;;;21.65;29.09;98030.22;4917477;29;1919;-75
2023/08/20 00:04:10;;;;;;;;;;;;;;;21.99;28.64;98028.91;4917184;29;1039;-75
2023/08/20 00:06:36;;;;;;;;;;;;;;;21.90;28.98;98020.25;4901377;29;1004;-76
2023/08/20 00:09:03;;;;;;;;;;;;;;;21.87;29.03;98024.00;4901415;29;1230;-75
2023/08/20 00:11:28;;;;;;;;;;;;;;;22.14;28.58;98030.13;4886119;29;1070;-76
2023/08/20 00:13:54;;;;;;;;;;;;;;;21.89;28.73;98027.16;4887644;29;1129;-75
2023/08/20 00:16:20;;;;;;;;;;;;;;;21.55;29.50;98028.44;4936045;29;1010;-76
2023/08/20 00:18:45;;;;;;;;;;;;;;;21.89;28.86;98030.78;4936377;29;1053;-75
2023/08/20 00:21:11;;;;;;;;;;;;;;;21.96;28.68;98030.59;4936066;29;1895;-76
2023/08/20 00:23:37;;;;;;;;;;;;;;;21.92;28.65;98026.28;4917069;29;1089;-75
2023/08/20 00:26:02;;;;;;;;;;;;;;;22.02;28.50;98033.66;4917032;29;1023;-75
2023/08/20 00:28:28;;;;;;;;;;;;;;;21.84;28.62;98034.97;4901377;29;1335;-75
2023/08/20 00:30:53;;;;;;;;;;;;;;;21.54;29.50;98021.22;4901099;29;1210;-75
2023/08/20 00:33:19;;;;;;;;;;;;;;;22.10;28.70;98020.91;4901457;29;1433;-76
2023/08/20 00:35:44;;;;;;;;;;;;;;;21.88;28.91;98023.53;4901606;29;1174;-76
2023/08/20 00:38:10;;;;;;;;;;;;;;;21.71;28.79;98017.13;4904357;29;1154;-76
2023/08/20 00:40:35;;;;;;;;;;;;;;;21.68;29.24;98020.84;4955050;28;1240;-77
2023/08/20 00:43:01;;;;;;;;;;;;;;;21.78;28.98;98019.75;4942538;29;1989;-76
2023/08/20 00:45:26;;;;;;;;;;;;;;;21.92;28.66;98023.47;4926805;29;1190;-75
2023/08/20 00:47:52;;;;;;;;;;;;;;;22.04;28.55;98017.03;4942645;29;1102;-76
2023/08/20 00:50:18;;;;;;;;;;;;;;;21.99;28.37;98021.22;4959068;29;962;-75
2023/08/20 00:52:43;;;;;;;;;;;;;;;22.07;28.27;98019.78;4942976;29;972;-76
2023/08/20 00:55:09;;;;;;;;;;;;;;;22.07;28.09;98025.44;4942871;29;1213;-76
2023/08/20 00:57:37;;;;;;;;;;;;;;;21.82;28.78;98026.13;4943129;29;1290;-76
2023/08/20 01:00:07;;;;;;;;;;;;;;;21.98;28.58;98027.31;4922057;29;1343;-75
2023/08/20 01:02:32;;;;;;;;;;;;;;;21.63;29.17;98018.53;4908331;29;1992;-75
2023/08/20 01:04:59;;;;;;;;;;;;;;;21.84;28.78;98020.81;4955293;29;1124;-77
2023/08/20 01:07:31;;;;;;;;;;;;;;;21.61;29.19;98026.69;4939490;29;1007;-75
2023/08/20 01:10:05;;;;;;;;;;;;;;;22.06;28.41;98028.69;4923324;29;951;-75
2023/08/20 01:12:31;;;;;;;;;;;;;;;22.05;28.35;98021.44;4917090;29;1141;-75
2023/08/20 01:14:57;;;;;;;;;;;;;;;21.91;28.62;98024.69;4916958;29;1574;-76
2023/08/20 01:17:23;;;;;;;;;;;;;;;21.93;28.45;98019.38;4916995;29;1454;-76
2023/08/20 01:19:49;;;;;;;;;;;;;;;21.63;29.08;98024.22;4901319;29;947;-75
2023/08/20 01:22:14;;;;;;;;;;;;;;;21.61;29.13;98018.22;4900994;29;1915;-76
2023/08/20 01:25:00;;;;;;;;;;;;;;;22.00;28.64;98013.50;4901016;29;1023;-75
2023/08/20 01:27:32;;;;;;;;;;;;;;;22.15;28.38;98019.59;4885376;29;1142;-76
2023/08/20 01:29:57;;;;;;;;;;;;;;;21.91;28.74;98021.84;4885336;29;1149;-75
2023/08/20 01:32:23;;;;;;;;;;;;;;;21.79;29.06;98021.34;4916673;29;1262;-75
2023/08/20 01:34:49;;;;;;;;;;;;;;;21.79;29.00;98014.88;4916771;29;1099;-75
2023/08/20 01:37:14;;;;;;;;;;;;;;;22.04;28.37;98020.66;4915777;29;1102;-77
2023/08/20 01:39:40;;;;;;;;;;;;;;;22.01;28.56;98015.09;4938580;29;1170;-75
2023/08/20 01:42:06;;;;;;;;;;;;;;;21.93;28.78;98019.38;4922881;29;1974;-75
2023/08/20 01:44:31;;;;;;;;;;;;;;;21.62;29.26;98014.13;4938710;28;1212;-75
2023/08/20 01:46:57;;;;;;;;;;;;;;;21.99;28.72;98017.59;4921801;29;1309;-76
2023/08/20 01:49:23;;;;;;;;;;;;;;;21.67;29.19;98019.25;4937401;29;914;-76
2023/08/20 01:51:48;;;;;;;;;;;;;;;21.92;28.63;98021.41;4921558;29;1134;-75
2023/08/20 01:54:14;;;;;;;;;;;;;;;21.92;28.71;98026.28;4904900;29;1277;-75
2023/08/20 01:56:40;;;;;;;;;;;;;;;22.04;28.50;98020.66;4905912;29;1146;-75
2023/08/20 01:59:05;;;;;;;;;;;;;;;21.91;28.49;98016.97;4930008;28;1269;-75
2023/08/20 02:01:31;;;;;;;;;;;;;;;21.54;29.14;98015.53;4961072;28;1902;-76
2023/08/20 02:03:57;;;;;;;;;;;;;;;21.70;29.05;98012.69;4978023;28;923;-75
2023/08/20 02:06:22;;;;;;;;;;;;;;;21.91;28.39;98011.31;4960908;28;1261;-75
2023/08/20 02:08:48;;;;;;;;;;;;;;;21.96;28.39;98007.94;4993135;28;1057;-75
2023/08/20 02:11:13;;;;;;;;;;;;;;;22.29;28.06;98014.31;4992938;28;973;-76
2023/08/20 02:13:39;;;;;;;;;;;;;;;22.07;28.13;98010.47;4978141;28;887;-76
2023/08/20 02:16:04;;;;;;;;;;;;;;;21.93;28.63;98006.00;4961005;28;1225;-75
2023/08/20 02:18:31;;;;;;;;;;;;;;;21.66;28.77;98009.19;4976599;28;1461;-76
2023/08/20 02:20:57;;;;;;;;;;;;;;;21.58;29.15;98002.09;4977859;28;913;-75
2023/08/20 02:23:22;;;;;;;;;;;;;;;21.52;29.20;98006.72;4976696;28;1914;-76
2023/08/20 02:25:51;;;;;;;;;;;;;;;21.81;28.79;98004.72;4977913;28;954;-75
2023/08/20 02:28:16;;;;;;;;;;;;;;;21.61;28.75;98009.72;4960624;28;974;-76
2023/08/20 02:30:42;;;;;;;;;;;;;;;22.01;28.44;98015.88;4992820;28;930;-75
2023/08/20 02:33:07;;;;;;;;;;;;;;;21.70;28.61;98001.34;4976630;28;1368;-75
2023/08/20 02:35:33;;;;;;;;;;;;;;;21.75;28.63;98014.97;4977879;28;976;-75
2023/08/20 02:37:59;;;;;;;;;;;;;;;21.81;28.51;98018.88;4960493;28;1057;-76
2023/08/20 02:40:24;;;;;;;;;;;;;;;21.94;28.31;98026.63;4992543;28;978;-77
2023/08/20 02:42:50;;;;;;;;;;;;;;;21.82;28.53;98026.13;4960439;28;1899;-75
2023/08/20 02:45:15;;;;;;;;;;;;;;;21.89;28.34;98024.34;4916628;28;1271424;-76
2023/08/20 02:47:40;;;;;;;;;;;;;;;21.58;28.82;98030.41;4978297;28;957;-76
2023/08/20 02:50:06;;;;;;;;;;;;;;;21.64;28.69;98030.66;4944970;28;1190;-76
2023/08/20 02:52:32;;;;;;;;;;;;;;;21.56;28.97;98024.41;4944867;28;922;-75
2023/08/20 02:54:57;;;;;;;;;;;;;;;21.35;29.24;98036.25;4977974;28;913;-76
2023/08/20 02:57:23;;;;;;;;;;;;;;;21.38;29.32;97990.88;4960601;28;1647;-75
2023/08/20 02:59:48;;;;;;;;;;;;;;;21.53;29.33;98025.28;4977602;28;1056;-76
2023/08/20 03:02:15;;;;;;;;;;;;;;;21.57;29.20;98031.66;4944889;28;1978;-76
2023/08/20 03:04:40;;;;;;;;;;;;;;;21.54;29.33;98032.53;4960621;28;1113;-78
2023/08/20 03:07:06;;;;;;;;;;;;;;;21.45;29.44;98038.00;4928942;28;1276;-76
2023/08/20 03:09:31;;;;;;;;;;;;;;;21.84;28.81;98031.34;4977757;28;899;-76
2023/08/20 03:11:57;;;;;;;;;;;;;;;21.83;28.95;98027.72;4960504;28;951;-76
2023/08/20 03:14:22;;;;;;;;;;;;;;;21.89;28.73;98035.66;4977243;28;976;-76
2023/08/20 03:16:48;;;;;;;;;;;;;;;22.22;28.15;98030.72;4960374;28;946;-75
2023/08/20 03:19:14;;;;;;;;;;;;;;;21.95;28.79;98031.84;4960303;28;1056;-76
2023/08/20 03:21:40;;;;;;;;;;;;;;;21.85;28.93;98030.09;4960137;28;1970;-75
2023/08/20 03:24:06;;;;;;;;;;;;;;;21.67;28.90;98030.59;4927305;28;1054;-75
2023/08/20 03:26:31;;;;;;;;;;;;;;;21.71;28.94;98025.63;4923712;29;1007;-75
2023/08/20 03:28:57;;;;;;;;;;;;;;;21.66;29.29;98029.00;4955705;29;1126;-75
2023/08/20 03:31:23;;;;;;;;;;;;;;;21.76;29.09;98027.91;4939700;29;1544;-76
2023/08/20 03:33:49;;;;;;;;;;;;;;;21.96;28.71;98027.75;4939458;29;1069;-76
2023/08/20 03:36:14;;;;;;;;;;;;;;;21.65;29.46;98027.38;4955489;29;1008;-76
2023/08/20 03:38:41;;;;;;;;;;;;;;;21.64;29.31;98019.34;4939603;29;1086;-76
2023/08/20 03:41:06;;;;;;;;;;;;;;;21.68;29.25;98029.34;4901380;29;1193;-76
2023/08/20 03:43:32;;;;;;;;;;;;;;;21.85;29.04;98022.38;4901709;29;1982;-76
2023/08/20 03:45:57;;;;;;;;;;;;;;;21.74;29.43;98029.59;4901661;29;1073;-76
2023/08/20 03:48:24;;;;;;;;;;;;;;;21.75;29.39;98031.19;4901650;29;1188;-77
2023/08/20 03:50:49;;;;;;;;;;;;;;;22.00;28.87;98030.50;4886010;29;1481;-77
2023/08/20 03:53:15;;;;;;;;;;;;;;;21.72;29.42;98021.53;4882504;29;1239;-76
2023/08/20 03:55:41;;;;;;;;;;;;;;;21.73;29.40;98030.84;4882872;29;1781;-76
2023/08/20 03:58:08;;;;;;;;;;;;;;;21.66;29.18;98029.00;4897038;29;1452;-76
2023/08/20 04:00:34;;;;;;;;;;;;;;;21.68;29.30;98032.16;4870563;29;1128;-76
2023/08/20 04:03:01;;;;;;;;;;;;;;;21.68;29.51;98037.84;4886143;29;1968;-76
2023/08/20 04:05:27;;;;;;;;;;;;;;;21.81;29.43;98030.22;4917232;29;1052;-76
2023/08/20 04:07:52;;;;;;;;;;;;;;;21.92;29.28;98031.97;4885853;29;1143;-76
2023/08/20 04:10:19;;;;;;;;;;;;;;;22.02;28.92;98028.00;4901590;29;830;-76
2023/08/20 04:12:45;;;;;;;;;;;;;;;21.73;29.26;98028.78;4917291;29;1134;-76
2023/08/20 04:15:10;;;;;;;;;;;;;;;21.93;29.21;98025.03;4901442;29;968;-77
2023/08/20 04:17:38;;;;;;;;;;;;;;;21.79;29.37;98032.66;4909451;29;1174;-77
2023/08/20 04:20:07;;;;;;;;;;;;;;;21.74;29.53;98024.72;4927797;29;1257;-77
2023/08/20 04:22:33;;;;;;;;;;;;;;;22.04;28.78;98031.19;4943117;29;1976;-76
2023/08/20 04:24:58;;;;;;;;;;;;;;;21.89;29.21;98032.84;4920170;29;1211;-76
2023/08/20 04:27:25;;;;;;;;;;;;;;;21.75;29.38;98026.31;4924173;29;1300;-77
2023/08/20 04:29:50;;;;;;;;;;;;;;;21.73;29.35;98030.84;4908242;29;1177;-77
2023/08/20 04:32:16;;;;;;;;;;;;;;;21.79;29.39;98032.66;4908303;29;1130;-75
2023/08/20 04:34:42;;;;;;;;;;;;;;;21.52;29.78;98030.16;4923958;29;1110;-77
2023/08/20 04:37:08;;;;;;;;;;;;;;;21.63;29.79;98029.88;4924246;29;877;-77
2023/08/20 04:39:33;;;;;;;;;;;;;;;22.00;28.93;98036.16;4939907;29;1169;-77
2023/08/20 04:42:00;;;;;;;;;;;;;;;21.87;29.52;98027.63;4923961;29;1903;-76
2023/08/20 04:44:26;;;;;;;;;;;;;;;21.79;29.60;98038.34;4908238;29;1050;-76
2023/08/20 04:46:54;;;;;;;;;;;;;;;21.67;30.01;98036.25;4909983;29;1130;-77
2023/08/20 04:49:19;;;;;;;;;;;;;;;21.66;29.79;98034.66;4889114;29;1240;-76
2023/08/20 04:51:45;;;;;;;;;;;;;;;21.85;29.62;98042.22;4920442;29;1081;-77
2023/08/20 04:54:10;;;;;;;;;;;;;;;22.07;29.35;98038.78;4889159;29;1390;-76
2023/08/20 04:56:36;;;;;;;;;;;;;;;21.85;29.76;98042.22;4888789;29;1369;-77
2023/08/20 04:59:01;;;;;;;;;;;;;;;21.91;29.68;98044.50;4904676;29;1147;-76
2023/08/20 05:01:46;;;;;;;;;;;;;;;22.09;29.23;98044.81;4903229;29;1983;-76
2023/08/20 05:04:12;;;;;;;;;;;;;;;22.22;29.11;98042.84;4927853;29;1177;-76
2023/08/20 05:06:37;;;;;;;;;;;;;;;22.20;29.37;98045.34;4907491;29;1197;-76
2023/08/20 05:09:03;;;;;;;;;;;;;;;21.95;29.72;98033.88;4923350;29;1239;-76
2023/08/20 05:11:31;;;;;;;;;;;;;;;21.89;29.91;98047.00;4907332;29;1299;-76
2023/08/20 05:13:57;;;;;;;;;;;;;;;22.15;29.58;98043.06;4907829;29;1256;-76
2023/08/20 05:16:23;;;;;;;;;;;;;;;21.78;30.02;98036.75;4901460;29;1119;-76
2023/08/20 05:18:49;;;;;;;;;;;;;;;21.96;29.99;98038.28;4901328;29;1305;-76
2023/08/20 05:21:15;;;;;;;;;;;;;;;22.19;29.39;98038.09;4895141;29;1560;-76
2023/08/20 05:23:41;;;;;;;;;;;;;;;21.92;30.03;98043.28;4883180;29;1970;-76
2023/08/20 05:26:07;;;;;;;;;;;;;;;21.81;29.88;98035.88;4863520;29;1101;-76
2023/08/20 05:28:33;;;;;;;;;;;;;;;21.81;30.33;98041.53;4863507;29;1128;-76
2023/08/20 05:30:58;;;;;;;;;;;;;;;21.62;30.58;98033.94;4848141;29;1310;-76
2023/08/20 05:33:24;;;;;;;;;;;;;;;21.87;30.27;98032.50;4879056;29;1157;-77
2023/08/20 05:35:50;;;;;;;;;;;;;;;21.79;30.42;98031.88;4863419;29;1146;-76
2023/08/20 05:38:16;;;;;;;;;;;;;;;21.81;30.55;98030.22;4889010;29;1225;-76
2023/08/20 05:40:42;;;;;;;;;;;;;;;22.09;29.81;98034.28;4897225;29;1249;-77
2023/08/20 05:43:08;;;;;;;;;;;;;;;21.96;30.22;98035.47;4881733;29;1985;-76
2023/08/20 05:45:33;;;;;;;;;;;;;;;22.12;29.93;98035.44;4900631;29;1249;-75
2023/08/20 05:47:59;;;;;;;;;;;;;;;21.95;30.19;98028.22;4930239;29;1630;-75
2023/08/20 05:50:25;;;;;;;;;;;;;;;21.91;30.20;98028.31;4941798;29;1247;-76
2023/08/20 05:52:50;;;;;;;;;;;;;;;22.04;29.92;98025.53;4925561;29;1444;-75
2023/08/20 05:55:16;;;;;;;;;;;;;;;22.00;30.01;98027.66;4941479;29;1207;-76
2023/08/20 05:57:42;;;;;;;;;;;;;;;21.93;30.18;98025.03;4943238;28;1169;-76
2023/08/20 06:00:08;;;;;;;;;;;;;;;22.06;30.01;98018.16;4962178;28;915;-76
2023/08/20 06:02:38;;;;;;;;;;;;;;;21.92;30.40;98023.47;4962013;28;1960;-75
2023/08/20 06:05:04;;;;;;;;;;;;;;;21.82;30.40;98031.78;4961885;28;1175;-75
2023/08/20 06:07:30;;;;;;;;;;;;;;;22.01;30.03;98030.03;4961893;28;926;-76
2023/08/20 06:09:56;;;;;;;;;;;;;;;22.05;30.08;98027.13;4961909;28;917;-75
2023/08/20 06:12:22;;;;;;;;;;;;;;;22.11;30.00;98031.03;4928916;28;1279;-76
2023/08/20 06:14:47;;;;;;;;;;;;;;;21.77;30.30;98018.16;4961585;28;999;-76
2023/08/20 06:17:13;;;;;;;;;;;;;;;22.15;29.96;98025.25;4961949;28;994;-76
2023/08/20 06:19:39;;;;;;;;;;;;;;;21.85;30.36;98022.38;4960888;28;1222;-76
2023/08/20 06:22:04;;;;;;;;;;;;;;;22.12;29.79;98026.94;4961337;28;1911;-75
2023/08/20 06:24:29;;;;;;;;;;;;;;;22.47;29.49;98022.28;4961548;28;1109;-76
2023/08/20 06:26:55;;;;;;;;;;;;;;;22.45;29.55;98015.47;4978558;28;1029;-76
2023/08/20 06:29:21;;;;;;;;;;;;;;;22.16;30.02;98016.31;4961259;28;943;-77
2023/08/20 06:31:47;;;;;;;;;;;;;;;22.05;30.17;98019.41;4945364;28;1243;-76
2023/08/20 06:34:13;;;;;;;;;;;;;;;22.26;29.78;98015.19;4978797;28;982;-76
2023/08/20 06:36:38;;;;;;;;;;;;;;;22.18;30.07;98019.50;4978731;28;942;-75
2023/08/20 06:39:04;;;;;;;;;;;;;;;21.98;30.40;98024.50;4960161;28;1056;-76
2023/08/20 06:41:29;;;;;;;;;;;;;;;22.32;29.68;98024.75;4960955;28;1914;-76
2023/08/20 06:43:55;;;;;;;;;;;;;;;22.05;30.48;98030.75;4961212;28;1043;-76
2023/08/20 06:46:20;;;;;;;;;;;;;;;22.06;30.38;98023.81;4960851;28;1257;-76
2023/08/20 06:48:46;;;;;;;;;;;;;;;22.54;29.57;98022.09;4978227;28;960;-76
2023/08/20 06:51:12;;;;;;;;;;;;;;;21.95;30.66;98017.66;4956179;29;1046;-77
2023/08/20 06:53:37;;;;;;;;;;;;;;;22.06;30.46;98017.38;4924342;29;948;-76
2023/08/20 06:56:03;;;;;;;;;;;;;;;22.08;30.41;98018.53;4940563;29;967;-76
2023/08/20 06:58:29;;;;;;;;;;;;;;;22.15;30.24;98020.38;4940458;29;1116;-77
2023/08/20 07:00:54;;;;;;;;;;;;;;;22.47;29.70;98021.50;4940572;29;1095;-76
2023/08/20 07:03:20;;;;;;;;;;;;;;;22.25;29.96;98013.63;4940415;29;1895;-76
2023/08/20 07:05:46;;;;;;;;;;;;;;;22.39;29.82;98017.28;4940177;29;1009;-76
2023/08/20 07:08:11;;;;;;;;;;;;;;;21.63;30.40;97944.94;4940272;29;1369;-76
2023/08/20 07:10:37;;;;;;;;;;;;;;;22.18;30.37;98019.50;4924427;29;1256;-76
2023/08/20 07:13:02;;;;;;;;;;;;;;;21.89;30.75;98013.81;4940379;29;1063;-76
2023/08/20 07:15:29;;;;;;;;;;;;;;;22.01;30.60;98015.09;4956311;29;981;-75
2023/08/20 07:17:54;;;;;;;;;;;;;;;22.34;30.26;98016.59;4924173;29;1062;-76
2023/08/20 07:20:20;;;;;;;;;;;;;;;22.33;30.09;98014.22;4924251;29;1093;-77
2023/08/20 07:22:45;;;;;;;;;;;;;;;22.24;30.21;98017.69;4938740;28;1911;-76
2023/08/20 07:25:11;;;;;;;;;;;;;;;22.29;30.26;98019.19;4977561;28;950;-77
2023/08/20 07:27:36;;;;;;;;;;;;;;;22.14;30.43;98018.81;4977567;28;899;-76
2023/08/20 07:30:02;;;;;;;;;;;;;;;22.25;30.49;98013.63;4960154;28;1073;-77
2023/08/20 07:32:28;;;;;;;;;;;;;;;22.24;30.56;98011.25;4944385;28;974;-76
2023/08/20 07:34:53;;;;;;;;;;;;;;;22.22;30.43;98025.84;4960008;28;916;-76
2023/08/20 07:37:19;;;;;;;;;;;;;;;22.18;30.57;98016.66;4960072;28;1030;-76
2023/08/20 07:39:44;;;;;;;;;;;;;;;22.29;30.37;98013.53;4976634;28;1967;-77
2023/08/20 07:42:10;;;;;;;;;;;;;;;22.49;30.05;98010.50;4976841;28;1906;-76
2023/08/20 07:44:36;;;;;;;;;;;;;;;22.45;29.81;98006.97;4976121;28;923;-77
2023/08/20 07:47:01;;;;;;;;;;;;;;;22.33;30.27;98009.34;4977192;28;1264;-75
2023/08/20 07:49:27;;;;;;;;;;;;;;;22.41;30.10;98014.78;4943728;28;1009;-75
2023/08/20 07:51:54;;;;;;;;;;;;;;;22.40;30.11;98007.53;4959976;28;1231;-76
2023/08/20 07:54:19;;;;;;;;;;;;;;;22.58;29.63;98002.09;4959732;28;1871;-75
2023/08/20 07:56:45;;;;;;;;;;;;;;;22.41;29.97;98003.44;4970781;28;970;-75
2023/08/20 07:59:10;;;;;;;;;;;;;;;22.49;29.94;97994.28;4958986;28;975;-75
2023/08/20 08:01:36;;;;;;;;;;;;;;;22.50;29.84;98000.75;4944210;28;1898;-75
2023/08/20 08:04:02;;;;;;;;;;;;;;;22.45;30.27;97998.47;4959606;28;935;-75
2023/08/20 08:06:27;;;;;;;;;;;;;;;22.14;30.66;97996.13;4957158;28;1508;-75
2023/08/20 08:08:53;;;;;;;;;;;;;;;22.43;30.13;97996.06;4959906;28;1400;-76
2023/08/20 08:11:18;;;;;;;;;;;;;;;22.20;30.43;97994.34;4959549;28;1291;-76
2023/08/20 08:13:44;;;;;;;;;;;;;;;22.24;30.63;97994.22;4976734;28;1463;-75
2023/08/20 08:16:09;;;;;;;;;;;;;;;22.18;30.90;97985.50;4976357;28;1464;-75
2023/08/20 08:18:35;;;;;;;;;;;;;;;22.07;31.05;97985.78;4976309;28;1332;-75
2023/08/20 08:21:00;;;;;;;;;;;;;;;22.24;30.84;97995.03;4976824;28;1309;-75
2023/08/20 08:23:25;;;;;;;;;;;;;;;22.43;30.17;97989.59;4976851;28;1906;-75
2023/08/20 08:25:51;;;;;;;;;;;;;;;22.59;30.14;97987.50;4976676;28;1486;-75
2023/08/20 08:28:16;;;;;;;;;;;;;;;22.32;30.43;97993.56;4976854;28;1494;-75
2023/08/20 08:30:42;;;;;;;;;;;;;;;22.48;30.47;97997.56;4958862;28;1560;-75
2023/08/20 08:33:07;;;;;;;;;;;;;;;22.44;30.64;97991.22;4959193;28;1605;-75
2023/08/20 08:35:33;;;;;;;;;;;;;;;22.23;30.71;97987.78;4972187;28;1626;-75
2023/08/20 08:37:59;;;;;;;;;;;;;;;22.30;30.76;97992.44;4943362;28;923;-75
2023/08/20 08:40:27;;;;;;;;;;;;;;;22.38;30.85;97990.16;4976591;28;1150;-75
2023/08/20 08:42:53;;;;;;;;;;;;;;;22.57;30.33;97983.50;4959159;28;1906;-76
2023/08/20 08:45:21;;;;;;;;;;;;;;;22.51;30.72;97996.66;4959287;28;1098;-75
2023/08/20 08:47:47;;;;;;;;;;;;;;;22.36;30.88;97991.41;4959468;28;1104;-75
2023/08/20 08:50:13;;;;;;;;;;;;;;;22.54;30.46;97995.78;4959583;28;916;-75
2023/08/20 08:52:39;;;;;;;;;;;;;;;22.47;30.77;97990.31;4959660;28;1000;-75
2023/08/20 08:55:05;;;;;;;;;;;;;;;22.51;30.68;97982.47;4956249;29;941;-76
2023/08/20 08:57:30;;;;;;;;;;;;;;;22.42;31.08;97983.16;4916734;29;936;-75
2023/08/20 08:59:56;;;;;;;;;;;;;;;22.38;30.98;97987.31;4916383;29;992;-75
2023/08/20 09:02:23;;;;;;;;;;;;;;;22.36;30.72;97984.94;4917471;29;1966;-76
2023/08/20 09:04:48;;;;;;;;;;;;;;;22.27;31.39;97985.59;4920270;29;1013;-75
2023/08/20 09:07:14;;;;;;;;;;;;;;;22.29;31.07;97979.50;4920008;29;990;-75
2023/08/20 09:09:43;;;;;;;;;;;;;;;22.27;31.19;97985.59;4904348;29;1063;-75
2023/08/20 09:12:17;;;;;;;;;;;;;;;22.22;31.40;97986.16;4904745;29;988;-75
2023/08/20 09:14:46;;;;;;;;;;;;;;;22.74;30.30;97985.00;4904414;29;961;-75
2023/08/20 09:17:12;;;;;;;;;;;;;;;22.43;30.90;97981.91;4888695;29;1000;-75
2023/08/20 09:19:38;;;;;;;;;;;;;;;22.25;30.97;97973.94;4904024;29;933;-76
2023/08/20 09:22:03;;;;;;;;;;;;;;;22.29;31.28;97985.97;4920142;29;1915;-75
2023/08/20 09:24:33;;;;;;;;;;;;;;;22.55;30.57;97974.66;4904315;29;1055;-75
2023/08/20 09:26:59;;;;;;;;;;;;;;;22.24;31.36;97983.69;4888451;29;992;-76
2023/08/20 09:29:24;;;;;;;;;;;;;;;22.09;31.45;97966.28;4915190;29;943;-75
2023/08/20 09:31:50;;;;;;;;;;;;;;;22.25;31.52;97982.44;4923533;29;1039;-75
2023/08/20 09:34:15;;;;;;;;;;;;;;;22.52;30.94;97969.88;4938483;29;1670;-75
2023/08/20 09:36:41;;;;;;;;;;;;;;;22.41;31.17;97983.59;4927770;29;1528;-76
2023/08/20 09:39:06;;;;;;;;;;;;;;;22.44;31.27;97974.22;4901208;29;1632;-75
2023/08/20 09:41:32;;;;;;;;;;;;;;;22.31;30.99;97989.13;4903518;29;1899;-75
2023/08/20 09:43:57;;;;;;;;;;;;;;;22.50;30.72;97976.03;4914219;29;1562;-75
2023/08/20 09:46:27;;;;;;;;;;;;;;;22.66;30.58;97969.47;4920184;29;1619;-74
2023/08/20 09:48:53;;;;;;;;;;;;;;;22.56;30.92;97981.94;4895733;29;1731;-74
2023/08/20 09:51:19;;;;;;;;;;;;;;;22.56;30.84;97970.59;4892126;29;1637;-75
2023/08/20 09:53:45;;;;;;;;;;;;;;;22.45;31.15;97975.78;4879560;29;1490;-75
2023/08/20 09:56:15;;;;;;;;;;;;;;;22.47;31.15;97979.75;4841103;29;1618;-75
2023/08/20 09:58:40;;;;;;;;;;;;;;;22.53;31.08;97971.47;4855141;29;1601;-76
2023/08/20 10:01:06;;;;;;;;;;;;;;;22.56;31.04;97960.03;4874160;29;1614;-75
2023/08/20 10:03:32;;;;;;;;;;;;;;;22.53;30.94;97960.13;4900111;29;1911;-75
2023/08/20 10:05:57;;;;;;;;;;;;;;;22.65;30.94;97962.19;4862654;29;1674;-76
2023/08/20 10:08:23;;;;;;;;;;;;;;;22.43;31.12;97972.59;4832178;29;1615;-75
2023/08/20 10:10:48;;;;;;;;;;;;;;;22.38;31.00;97973.16;4831503;29;1604;-76
2023/08/20 10:13:14;;;;;;;;;;;;;;;22.61;30.71;97979.31;4846917;29;1638;-75
2023/08/20 10:15:40;;;;;;;;;;;;;;;22.52;31.01;97964.22;4847247;29;2082;-76
2023/08/20 10:18:07;;;;;;;;;;;;;;;22.56;30.80;97960.03;4861299;29;1563;-75
2023/08/20 10:20:32;;;;;;;;;;;;;;;22.36;30.92;97968.75;4855840;29;1481;-75
2023/08/20 10:23:02;;;;;;;;;;;;;;;22.40;31.07;97979.19;4850077;29;1978;-77
2023/08/20 10:25:28;;;;;;;;;;;;;;;22.63;30.75;97981.69;4847136;29;1698;-76
2023/08/20 10:27:54;;;;;;;;;;;;;;;22.73;30.33;97974.09;4845808;29;1601;-76
2023/08/20 10:30:25;;;;;;;;;;;;;;;22.76;30.25;97979.66;4848933;29;1429;-76
2023/08/20 10:32:54;;;;;;;;;;;;;;;22.59;30.32;97970.47;4857806;29;1535;-76
2023/08/20 10:35:23;;;;;;;;;;;;;;;22.63;30.34;97970.34;4902485;29;1670;-76
2023/08/20 10:38:00;;;;;;;;;;;;;;;22.61;30.71;97967.19;4897823;29;2086;-77
2023/08/20 10:40:46;;;;;;;;;;;;;;;22.82;30.10;97977.84;4915572;29;1586;-76
2023/08/20 10:43:11;;;;;;;;;;;;;;;22.88;29.88;97978.09;4885617;29;1911;-76
2023/08/20 10:45:43;;;;;;;;;;;;;;;22.63;30.30;97981.69;4916220;29;1705;-76
2023/08/20 10:48:08;;;;;;;;;;;;;;;22.70;30.47;97986.38;4938556;29;1676;-76
2023/08/20 10:50:36;;;;;;;;;;;;;;;22.74;30.40;97982.19;4932277;29;1807;-77
2023/08/20 10:53:01;;;;;;;;;;;;;;;22.65;30.41;97979.22;4941036;29;1137;-76
2023/08/20 10:55:28;;;;;;;;;;;;;;;22.81;30.20;97964.91;4954031;29;1039;-76
2023/08/20 10:58:02;;;;;;;;;;;;;;;22.47;30.74;97984.63;4940265;29;2035;-77
2023/08/20 11:00:28;;;;;;;;;;;;;;;22.76;29.89;97974.00;4956629;29;1167;-77
2023/08/20 11:02:54;;;;;;;;;;;;;;;22.57;30.33;97966.50;4916568;29;1976;-77
2023/08/20 11:05:21;;;;;;;;;;;;;;;22.58;30.45;97982.25;4921702;29;956;-76
2023/08/20 11:07:47;;;;;;;;;;;;;;;22.64;30.15;97971.97;4921465;29;1017;-75
2023/08/20 11:10:13;;;;;;;;;;;;;;;22.47;30.17;97965.56;4921606;29;960;-76
2023/08/20 11:12:39;;;;;;;;;;;;;;;22.68;29.99;97966.16;4921362;29;1024;-76
2023/08/20 11:15:05;;;;;;;;;;;;;;;22.70;29.88;97964.47;4935472;29;1244;-76
2023/08/20 11:17:30;;;;;;;;;;;;;;;22.72;29.90;97961.97;4938961;29;1054;-76
2023/08/20 11:19:56;;;;;;;;;;;;;;;22.53;30.24;97971.47;4938520;29;900;-76
2023/08/20 11:22:21;;;;;;;;;;;;;;;22.64;30.14;97977.63;4938967;29;1954;-76
2023/08/20 11:24:47;;;;;;;;;;;;;;;22.51;30.28;97956.97;4954192;28;1119;-76
2023/08/20 11:27:12;;;;;;;;;;;;;;;22.64;30.20;97960.63;4939035;29;985;-75
2023/08/20 11:29:41;;;;;;;;;;;;;;;22.60;30.16;97959.94;4937642;29;928;-77
2023/08/20 11:32:07;;;;;;;;;;;;;;;22.34;30.48;97961.94;4921994;29;969;-76
2023/08/20 11:34:33;;;;;;;;;;;;;;;22.54;30.13;97956.06;4938028;29;883;-77
2023/08/20 11:36:58;;;;;;;;;;;;;;;22.81;29.73;97947.91;4920746;29;1068;-76
2023/08/20 11:39:24;;;;;;;;;;;;;;;22.51;30.29;97962.63;4920735;29;1009;-77
2023/08/20 11:41:50;;;;;;;;;;;;;;;22.69;29.72;97964.91;4920444;29;1907;-76
2023/08/20 11:44:21;;;;;;;;;;;;;;;22.68;29.80;97952.78;4920678;29;1158;-76
2023/08/20 11:46:47;;;;;;;;;;;;;;;22.56;30.04;97936.56;4904857;29;1030;-75
2023/08/20 11:49:13;;;;;;;;;;;;;;;22.59;29.90;97942.13;4920700;29;1020;-75
2023/08/20 11:51:39;;;;;;;;;;;;;;;22.73;29.71;97937.22;4898125;29;1121;-75
2023/08/20 11:54:07;;;;;;;;;;;;;;;22.60;29.79;97951.41;4898600;29;985;-76
2023/08/20 11:56:33;;;;;;;;;;;;;;;22.60;29.85;97948.59;4898083;29;1561;-75
2023/08/20 11:58:59;;;;;;;;;;;;;;;22.76;29.68;97945.63;4898200;29;1604;-75
2023/08/20 12:01:25;;;;;;;;;;;;;;;22.70;29.97;97944.63;4897695;29;1565;-76
2023/08/20 12:03:50;;;;;;;;;;;;;;;22.56;29.84;97936.56;4899746;29;1976;-76
2023/08/20 12:06:19;;;;;;;;;;;;;;;22.62;30.04;97951.75;4917268;29;954;-76
2023/08/20 12:08:44;;;;;;;;;;;;;;;22.99;29.52;97952.22;4885931;29;952;-76
2023/08/20 12:11:10;;;;;;;;;;;;;;;22.62;29.95;97935.53;4898213;29;1010;-76
2023/08/20 12:13:36;;;;;;;;;;;;;;;22.51;30.08;97934.28;4898234;29;1521;-76
2023/08/20 12:16:01;;;;;;;;;;;;;;;22.72;29.78;97933.59;4898125;29;951;-76
2023/08/20 12:18:27;;;;;;;;;;;;;;;22.82;29.69;97932.47;4898159;29;948;-75
2023/08/20 12:20:52;;;;;;;;;;;;;;;22.82;29.77;97929.63;4898458;29;1176;-76
2023/08/20 12:23:18;;;;;;;;;;;;;;;22.84;29.28;97924.28;4959332;28;1914;-76
2023/08/20 12:25:43;;;;;;;;;;;;;;;22.61;29.85;97933.16;4957673;29;1074;-76
2023/08/20 12:28:09;;;;;;;;;;;;;;;22.65;29.95;97922.50;4940107;29;960;-76
2023/08/20 12:30:35;;;;;;;;;;;;;;;22.65;29.96;97933.84;4940440;29;952;-75
2023/08/20 12:33:00;;;;;;;;;;;;;;;22.62;29.77;97934.72;4950976;29;1560;-75
2023/08/20 12:35:26;;;;;;;;;;;;;;;22.31;30.59;97921.09;4940686;29;1121;-75
2023/08/20 12:37:51;;;;;;;;;;;;;;;22.58;29.90;97934.06;4942272;29;925;-76
2023/08/20 12:40:17;;;;;;;;;;;;;;;22.68;29.98;97924.41;4961215;29;987;-76
2023/08/20 12:42:43;;;;;;;;;;;;;;;22.73;29.72;97931.56;4927932;29;1912;-77
2023/08/20 12:45:10;;;;;;;;;;;;;;;22.60;30.14;97925.91;4944110;29;997;-76
2023/08/20 12:47:35;;;;;;;;;;;;;;;22.78;29.74;97928.16;4928066;29;936;-75
2023/08/20 12:50:01;;;;;;;;;;;;;;;22.62;29.82;97929.06;4928199;29;1239;-76
2023/08/20 12:52:26;;;;;;;;;;;;;;;22.72;29.94;97922.25;4944106;29;978;-76
2023/08/20 12:54:52;;;;;;;;;;;;;;;22.56;29.89;97940.19;4943689;29;1321;-76